sensor_id;sensor_type;location;lat;lon;timestamp;P1;durP1;ratioP1;P2;durP2;ratioP2
61344;SDS011;47216;42.656;23.232;2023-05-24T00:00:40;5.67;;;3.37;;
61344;SDS011;47216;42.656;23.232;2023-05-24T00:03:07;6.50;;;3.40;;
61344;SDS011;47216;42.656;23.232;2023-05-24T00:05:34;7.67;;;3.33;;
61344;SDS011;47216;42.656;23.232;2023-05-24T00:08:05;9.23;;;3.90;;
61344;SDS011;47216;42.656;23.232;2023-05-24T00:10:32;4.30;;;3.17;;
61344;SDS011;47216;42.656;23.232;2023-05-24T00:12:59;5.27;;;3.00;;
61344;SDS011;47216;42.656;23.232;2023-05-24T00:15:27;5.07;;;3.70;;
61344;SDS011;47216;42.656;23.232;2023-05-24T00:17:54;5.77;;;3.60;;
61344;SDS011;47216;42.656;23.232;2023-05-24T00:20:21;6.23;;;3.60;;
61344;SDS011;47216;42.656;23.232;2023-05-24T00:22:48;4.57;;;3.30;;
61344;SDS011;47216;42.656;23.232;2023-05-24T00:25:15;6.90;;;3.30;;
61344;SDS011;47216;42.656;23.232;2023-05-24T00:27:43;4.37;;;3.20;;
61344;SDS011;47216;42.656;23.232;2023-05-24T00:30:10;5.00;;;3.47;;
61344;SDS011;47216;42.656;23.232;2023-05-24T00:32:39;6.87;;;3.60;;
61344;SDS011;47216;42.656;23.232;2023-05-24T00:35:06;4.70;;;3.53;;
61344;SDS011;47216;42.656;23.232;2023-05-24T00:37:33;3.97;;;2.90;;
61344;SDS011;47216;42.656;23.232;2023-05-24T00:40:01;5.73;;;3.23;;
61344;SDS011;47216;42.656;23.232;2023-05-24T00:42:29;7.53;;;3.63;;
61344;SDS011;47216;42.656;23.232;2023-05-24T00:44:56;6.40;;;3.30;;
61344;SDS011;47216;42.656;23.232;2023-05-24T00:47:23;5.23;;;3.20;;
61344;SDS011;47216;42.656;23.232;2023-05-24T00:49:51;4.90;;;3.40;;
61344;SDS011;47216;42.656;23.232;2023-05-24T00:52:18;5.67;;;3.43;;
61344;SDS011;47216;42.656;23.232;2023-05-24T00:54:46;3.90;;;3.10;;
61344;SDS011;47216;42.656;23.232;2023-05-24T00:57:14;5.40;;;3.30;;
61344;SDS011;47216;42.656;23.232;2023-05-24T00:59:42;8.77;;;3.47;;
61344;SDS011;47216;42.656;23.232;2023-05-24T01:02:10;4.80;;;3.40;;
61344;SDS011;47216;42.656;23.232;2023-05-24T01:04:37;5.03;;;3.33;;
61344;SDS011;47216;42.656;23.232;2023-05-24T01:07:08;3.63;;;3.03;;
61344;SDS011;47216;42.656;23.232;2023-05-24T01:09:49;4.67;;;3.30;;
61344;SDS011;47216;42.656;23.232;2023-05-24T01:12:25;4.10;;;3.10;;
61344;SDS011;47216;42.656;23.232;2023-05-24T01:15:02;5.60;;;3.20;;
61344;SDS011;47216;42.656;23.232;2023-05-24T01:17:35;5.23;;;3.43;;
61344;SDS011;47216;42.656;23.232;2023-05-24T01:20:12;5.77;;;3.73;;
61344;SDS011;47216;42.656;23.232;2023-05-24T01:25:44;4.60;;;3.80;;
61344;SDS011;47216;42.656;23.232;2023-05-24T01:28:16;4.30;;;3.17;;
61344;SDS011;47216;42.656;23.232;2023-05-24T01:30:44;3.90;;;3.13;;
61344;SDS011;47216;42.656;23.232;2023-05-24T01:33:11;4.90;;;3.43;;
61344;SDS011;47216;42.656;23.232;2023-05-24T01:35:38;4.23;;;3.10;;
61344;SDS011;47216;42.656;23.232;2023-05-24T01:38:06;5.03;;;3.20;;
61344;SDS011;47216;42.656;23.232;2023-05-24T01:40:34;6.27;;;3.43;;
61344;SDS011;47216;42.656;23.232;2023-05-24T01:43:03;4.70;;;3.00;;
61344;SDS011;47216;42.656;23.232;2023-05-24T01:45:42;4.17;;;3.17;;
61344;SDS011;47216;42.656;23.232;2023-05-24T01:48:15;3.77;;;2.97;;
61344;SDS011;47216;42.656;23.232;2023-05-24T01:50:51;5.37;;;3.13;;
61344;SDS011;47216;42.656;23.232;2023-05-24T01:53:20;4.97;;;3.17;;
61344;SDS011;47216;42.656;23.232;2023-05-24T01:55:50;5.17;;;3.60;;
61344;SDS011;47216;42.656;23.232;2023-05-24T01:58:20;5.03;;;3.07;;
61344;SDS011;47216;42.656;23.232;2023-05-24T02:00:50;5.17;;;3.43;;
61344;SDS011;47216;42.656;23.232;2023-05-24T02:03:17;4.87;;;3.20;;
61344;SDS011;47216;42.656;23.232;2023-05-24T02:05:45;4.67;;;2.83;;
61344;SDS011;47216;42.656;23.232;2023-05-24T02:08:12;4.27;;;3.20;;
61344;SDS011;47216;42.656;23.232;2023-05-24T02:10:39;4.57;;;2.70;;
61344;SDS011;47216;42.656;23.232;2023-05-24T02:13:06;5.07;;;3.07;;
61344;SDS011;47216;42.656;23.232;2023-05-24T02:15:34;3.70;;;2.83;;
61344;SDS011;47216;42.656;23.232;2023-05-24T02:18:02;4.03;;;2.70;;
61344;SDS011;47216;42.656;23.232;2023-05-24T02:20:32;4.53;;;2.93;;
61344;SDS011;47216;42.656;23.232;2023-05-24T02:23:01;4.53;;;3.23;;
61344;SDS011;47216;42.656;23.232;2023-05-24T02:25:28;4.77;;;2.80;;
61344;SDS011;47216;42.656;23.232;2023-05-24T02:27:55;4.63;;;3.03;;
61344;SDS011;47216;42.656;23.232;2023-05-24T02:30:22;4.17;;;2.70;;
61344;SDS011;47216;42.656;23.232;2023-05-24T02:32:49;6.37;;;2.73;;
61344;SDS011;47216;42.656;23.232;2023-05-24T02:35:17;3.37;;;2.80;;
61344;SDS011;47216;42.656;23.232;2023-05-24T02:37:44;5.93;;;3.13;;
61344;SDS011;47216;42.656;23.232;2023-05-24T02:40:11;5.93;;;2.80;;
61344;SDS011;47216;42.656;23.232;2023-05-24T02:42:38;4.20;;;2.80;;
61344;SDS011;47216;42.656;23.232;2023-05-24T02:45:05;4.40;;;2.87;;
61344;SDS011;47216;42.656;23.232;2023-05-24T02:47:33;3.13;;;2.60;;
61344;SDS011;47216;42.656;23.232;2023-05-24T02:50:00;5.07;;;2.77;;
61344;SDS011;47216;42.656;23.232;2023-05-24T02:52:29;6.50;;;3.10;;
61344;SDS011;47216;42.656;23.232;2023-05-24T02:54:57;3.20;;;2.80;;
61344;SDS011;47216;42.656;23.232;2023-05-24T02:57:23;5.17;;;3.00;;
61344;SDS011;47216;42.656;23.232;2023-05-24T02:59:50;3.30;;;2.40;;
61344;SDS011;47216;42.656;23.232;2023-05-24T03:02:18;6.43;;;2.90;;
61344;SDS011;47216;42.656;23.232;2023-05-24T03:04:46;6.27;;;2.67;;
61344;SDS011;47216;42.656;23.232;2023-05-24T03:07:13;3.83;;;2.70;;
61344;SDS011;47216;42.656;23.232;2023-05-24T03:09:41;3.73;;;2.20;;
61344;SDS011;47216;42.656;23.232;2023-05-24T03:12:08;6.90;;;2.77;;
61344;SDS011;47216;42.656;23.232;2023-05-24T03:14:36;3.60;;;2.60;;
61344;SDS011;47216;42.656;23.232;2023-05-24T03:17:03;4.60;;;2.90;;
61344;SDS011;47216;42.656;23.232;2023-05-24T03:19:30;4.10;;;2.90;;
61344;SDS011;47216;42.656;23.232;2023-05-24T03:21:57;3.47;;;2.77;;
61344;SDS011;47216;42.656;23.232;2023-05-24T03:24:24;4.20;;;2.73;;
61344;SDS011;47216;42.656;23.232;2023-05-24T03:26:52;3.57;;;2.77;;
61344;SDS011;47216;42.656;23.232;2023-05-24T03:29:19;3.37;;;2.67;;
61344;SDS011;47216;42.656;23.232;2023-05-24T03:31:46;5.75;;;2.95;;
61344;SDS011;47216;42.656;23.232;2023-05-24T03:34:13;3.50;;;2.80;;
61344;SDS011;47216;42.656;23.232;2023-05-24T03:36:40;3.47;;;2.50;;
61344;SDS011;47216;42.656;23.232;2023-05-24T03:39:07;7.53;;;2.70;;
61344;SDS011;47216;42.656;23.232;2023-05-24T03:41:34;4.93;;;3.07;;
61344;SDS011;47216;42.656;23.232;2023-05-24T03:44:02;2.60;;;2.40;;
61344;SDS011;47216;42.656;23.232;2023-05-24T03:46:30;4.63;;;2.60;;
61344;SDS011;47216;42.656;23.232;2023-05-24T03:48:56;5.40;;;3.00;;
61344;SDS011;47216;42.656;23.232;2023-05-24T03:51:23;3.43;;;2.40;;
61344;SDS011;47216;42.656;23.232;2023-05-24T03:53:53;6.73;;;2.50;;
61344;SDS011;47216;42.656;23.232;2023-05-24T03:56:21;4.53;;;2.70;;
61344;SDS011;47216;42.656;23.232;2023-05-24T03:58:48;4.87;;;2.43;;
61344;SDS011;47216;42.656;23.232;2023-05-24T04:01:19;4.23;;;2.83;;
61344;SDS011;47216;42.656;23.232;2023-05-24T04:03:46;4.37;;;2.80;;
61344;SDS011;47216;42.656;23.232;2023-05-24T04:06:12;4.93;;;3.73;;
61344;SDS011;47216;42.656;23.232;2023-05-24T04:08:40;4.65;;;3.30;;
61344;SDS011;47216;42.656;23.232;2023-05-24T04:11:06;7.10;;;3.55;;
61344;SDS011;47216;42.656;23.232;2023-05-24T04:13:33;5.07;;;3.53;;
61344;SDS011;47216;42.656;23.232;2023-05-24T04:16:00;6.30;;;3.50;;
61344;SDS011;47216;42.656;23.232;2023-05-24T04:18:29;5.27;;;3.40;;
61344;SDS011;47216;42.656;23.232;2023-05-24T04:20:56;5.65;;;3.53;;
61344;SDS011;47216;42.656;23.232;2023-05-24T04:23:23;6.50;;;3.40;;
61344;SDS011;47216;42.656;23.232;2023-05-24T04:25:50;4.53;;;3.22;;
61344;SDS011;47216;42.656;23.232;2023-05-24T04:28:17;6.47;;;3.27;;
61344;SDS011;47216;42.656;23.232;2023-05-24T04:30:46;5.05;;;3.45;;
61344;SDS011;47216;42.656;23.232;2023-05-24T04:33:13;4.28;;;3.22;;
61344;SDS011;47216;42.656;23.232;2023-05-24T04:35:42;6.18;;;3.13;;
61344;SDS011;47216;42.656;23.232;2023-05-24T04:38:09;4.47;;;3.30;;
61344;SDS011;47216;42.656;23.232;2023-05-24T04:40:37;5.22;;;3.33;;
61344;SDS011;47216;42.656;23.232;2023-05-24T04:43:04;5.18;;;3.10;;
61344;SDS011;47216;42.656;23.232;2023-05-24T04:45:31;4.90;;;3.43;;
61344;SDS011;47216;42.656;23.232;2023-05-24T04:47:58;4.57;;;3.60;;
61344;SDS011;47216;42.656;23.232;2023-05-24T04:50:27;4.78;;;3.35;;
61344;SDS011;47216;42.656;23.232;2023-05-24T04:52:55;8.17;;;4.00;;
61344;SDS011;47216;42.656;23.232;2023-05-24T04:55:23;6.07;;;4.47;;
61344;SDS011;47216;42.656;23.232;2023-05-24T04:57:50;9.07;;;4.80;;
61344;SDS011;47216;42.656;23.232;2023-05-24T05:00:17;6.75;;;4.82;;
61344;SDS011;47216;42.656;23.232;2023-05-24T05:02:45;7.03;;;4.50;;
61344;SDS011;47216;42.656;23.232;2023-05-24T05:05:12;25.00;;;18.95;;
61344;SDS011;47216;42.656;23.232;2023-05-24T05:07:39;13.00;;;8.10;;
61344;SDS011;47216;42.656;23.232;2023-05-24T05:10:08;8.85;;;5.30;;
61344;SDS011;47216;42.656;23.232;2023-05-24T05:12:35;6.30;;;4.43;;
61344;SDS011;47216;42.656;23.232;2023-05-24T05:15:03;9.02;;;4.60;;
61344;SDS011;47216;42.656;23.232;2023-05-24T05:17:30;7.95;;;4.70;;
61344;SDS011;47216;42.656;23.232;2023-05-24T05:19:57;6.78;;;4.55;;
61344;SDS011;47216;42.656;23.232;2023-05-24T05:22:24;9.07;;;4.90;;
61344;SDS011;47216;42.656;23.232;2023-05-24T05:24:51;12.97;;;5.10;;
61344;SDS011;47216;42.656;23.232;2023-05-24T05:27:19;8.57;;;5.13;;
61344;SDS011;47216;42.656;23.232;2023-05-24T05:29:46;7.10;;;4.93;;
61344;SDS011;47216;42.656;23.232;2023-05-24T05:32:13;12.48;;;5.72;;
61344;SDS011;47216;42.656;23.232;2023-05-24T05:34:40;16.13;;;5.73;;
61344;SDS011;47216;42.656;23.232;2023-05-24T05:37:07;12.27;;;5.97;;
61344;SDS011;47216;42.656;23.232;2023-05-24T05:39:35;11.43;;;5.85;;
61344;SDS011;47216;42.656;23.232;2023-05-24T05:42:01;12.93;;;6.03;;
61344;SDS011;47216;42.656;23.232;2023-05-24T05:44:30;10.67;;;6.40;;
61344;SDS011;47216;42.656;23.232;2023-05-24T05:46:57;10.00;;;6.30;;
61344;SDS011;47216;42.656;23.232;2023-05-24T05:49:24;9.88;;;6.10;;
61344;SDS011;47216;42.656;23.232;2023-05-24T05:51:50;11.03;;;6.20;;
61344;SDS011;47216;42.656;23.232;2023-05-24T05:54:18;8.93;;;6.13;;
61344;SDS011;47216;42.656;23.232;2023-05-24T05:56:45;10.52;;;5.75;;
61344;SDS011;47216;42.656;23.232;2023-05-24T05:59:12;8.02;;;6.28;;
61344;SDS011;47216;42.656;23.232;2023-05-24T06:01:41;10.82;;;6.65;;
61344;SDS011;47216;42.656;23.232;2023-05-24T06:04:09;13.23;;;6.45;;
61344;SDS011;47216;42.656;23.232;2023-05-24T06:06:36;9.50;;;6.85;;
61344;SDS011;47216;42.656;23.232;2023-05-24T06:09:03;11.50;;;6.57;;
61344;SDS011;47216;42.656;23.232;2023-05-24T06:11:30;9.23;;;6.85;;
61344;SDS011;47216;42.656;23.232;2023-05-24T06:13:57;10.30;;;6.85;;
61344;SDS011;47216;42.656;23.232;2023-05-24T06:16:23;11.13;;;7.13;;
61344;SDS011;47216;42.656;23.232;2023-05-24T06:18:52;12.95;;;7.10;;
61344;SDS011;47216;42.656;23.232;2023-05-24T06:21:19;11.63;;;6.78;;
61344;SDS011;47216;42.656;23.232;2023-05-24T06:23:45;11.55;;;6.63;;
61344;SDS011;47216;42.656;23.232;2023-05-24T06:26:12;10.98;;;6.35;;
61344;SDS011;47216;42.656;23.232;2023-05-24T06:28:39;8.57;;;6.30;;
61344;SDS011;47216;42.656;23.232;2023-05-24T06:31:06;12.13;;;6.20;;
61344;SDS011;47216;42.656;23.232;2023-05-24T06:33:32;12.00;;;6.90;;
61344;SDS011;47216;42.656;23.232;2023-05-24T06:36:01;14.15;;;6.70;;
61344;SDS011;47216;42.656;23.232;2023-05-24T06:38:28;14.00;;;7.20;;
61344;SDS011;47216;42.656;23.232;2023-05-24T06:40:57;15.60;;;6.68;;
61344;SDS011;47216;42.656;23.232;2023-05-24T06:43:23;15.55;;;7.05;;
61344;SDS011;47216;42.656;23.232;2023-05-24T06:45:50;18.88;;;6.82;;
61344;SDS011;47216;42.656;23.232;2023-05-24T06:48:17;11.17;;;6.30;;
61344;SDS011;47216;42.656;23.232;2023-05-24T06:50:44;9.30;;;5.80;;
61344;SDS011;47216;42.656;23.232;2023-05-24T06:53:12;6.13;;;4.65;;
61344;SDS011;47216;42.656;23.232;2023-05-24T06:55:39;8.35;;;4.85;;
61344;SDS011;47216;42.656;23.232;2023-05-24T06:58:05;8.27;;;5.00;;
61344;SDS011;47216;42.656;23.232;2023-05-24T07:00:38;7.90;;;5.35;;
61344;SDS011;47216;42.656;23.232;2023-05-24T07:03:05;7.75;;;4.82;;
61344;SDS011;47216;42.656;23.232;2023-05-24T07:05:32;8.32;;;4.60;;
61344;SDS011;47216;42.656;23.232;2023-05-24T07:07:59;14.03;;;5.03;;
61344;SDS011;47216;42.656;23.232;2023-05-24T07:10:27;10.20;;;5.80;;
61344;SDS011;47216;42.656;23.232;2023-05-24T07:12:54;8.13;;;5.30;;
61344;SDS011;47216;42.656;23.232;2023-05-24T07:15:21;14.57;;;5.97;;
61344;SDS011;47216;42.656;23.232;2023-05-24T07:17:47;10.93;;;5.38;;
61344;SDS011;47216;42.656;23.232;2023-05-24T07:20:14;9.13;;;5.45;;
61344;SDS011;47216;42.656;23.232;2023-05-24T07:22:41;10.63;;;4.60;;
61344;SDS011;47216;42.656;23.232;2023-05-24T07:25:08;9.13;;;5.40;;
61344;SDS011;47216;42.656;23.232;2023-05-24T07:27:37;16.50;;;5.53;;
61344;SDS011;47216;42.656;23.232;2023-05-24T07:30:04;16.43;;;5.70;;
61344;SDS011;47216;42.656;23.232;2023-05-24T07:32:32;9.57;;;5.30;;
61344;SDS011;47216;42.656;23.232;2023-05-24T07:34:59;13.02;;;5.88;;
61344;SDS011;47216;42.656;23.232;2023-05-24T07:37:26;9.25;;;5.13;;
61344;SDS011;47216;42.656;23.232;2023-05-24T07:39:53;10.35;;;4.80;;
61344;SDS011;47216;42.656;23.232;2023-05-24T07:42:19;7.68;;;4.72;;
61344;SDS011;47216;42.656;23.232;2023-05-24T07:44:48;11.55;;;5.07;;
61344;SDS011;47216;42.656;23.232;2023-05-24T07:47:15;8.20;;;5.03;;
61344;SDS011;47216;42.656;23.232;2023-05-24T07:49:41;9.98;;;4.80;;
61344;SDS011;47216;42.656;23.232;2023-05-24T07:52:08;9.75;;;4.82;;
61344;SDS011;47216;42.656;23.232;2023-05-24T07:54:35;10.85;;;4.43;;
61344;SDS011;47216;42.656;23.232;2023-05-24T07:57:02;22.90;;;5.15;;
61344;SDS011;47216;42.656;23.232;2023-05-24T07:59:29;7.35;;;4.18;;
61344;SDS011;47216;42.656;23.232;2023-05-24T08:01:58;8.30;;;4.53;;
61344;SDS011;47216;42.656;23.232;2023-05-24T08:04:29;9.45;;;4.72;;
61344;SDS011;47216;42.656;23.232;2023-05-24T08:06:56;26.52;;;5.82;;
61344;SDS011;47216;42.656;23.232;2023-05-24T08:09:23;7.43;;;4.30;;
61344;SDS011;47216;42.656;23.232;2023-05-24T08:11:51;8.88;;;4.43;;
61344;SDS011;47216;42.656;23.232;2023-05-24T08:14:19;14.38;;;4.88;;
61344;SDS011;47216;42.656;23.232;2023-05-24T08:16:45;16.42;;;5.75;;
61344;SDS011;47216;42.656;23.232;2023-05-24T08:19:14;10.93;;;5.00;;
61344;SDS011;47216;42.656;23.232;2023-05-24T08:21:40;35.35;;;5.82;;
61344;SDS011;47216;42.656;23.232;2023-05-24T08:24:07;9.13;;;5.45;;
61344;SDS011;47216;42.656;23.232;2023-05-24T08:26:34;12.38;;;5.35;;
61344;SDS011;47216;42.656;23.232;2023-05-24T08:29:02;10.50;;;5.20;;
61344;SDS011;47216;42.656;23.232;2023-05-24T08:31:29;16.77;;;5.00;;
61344;SDS011;47216;42.656;23.232;2023-05-24T08:33:56;15.40;;;5.07;;
61344;SDS011;47216;42.656;23.232;2023-05-24T08:36:25;13.50;;;3.88;;
61344;SDS011;47216;42.656;23.232;2023-05-24T08:38:52;10.32;;;3.50;;
61344;SDS011;47216;42.656;23.232;2023-05-24T08:41:19;11.70;;;3.40;;
61344;SDS011;47216;42.656;23.232;2023-05-24T08:43:46;10.25;;;3.70;;
61344;SDS011;47216;42.656;23.232;2023-05-24T08:46:13;14.43;;;3.70;;
61344;SDS011;47216;42.656;23.232;2023-05-24T08:48:43;6.82;;;3.38;;
61344;SDS011;47216;42.656;23.232;2023-05-24T08:51:12;5.47;;;3.72;;
61344;SDS011;47216;42.656;23.232;2023-05-24T08:53:41;10.40;;;3.90;;
61344;SDS011;47216;42.656;23.232;2023-05-24T08:56:12;8.13;;;3.75;;
61344;SDS011;47216;42.656;23.232;2023-05-24T08:58:41;10.20;;;3.65;;
61344;SDS011;47216;42.656;23.232;2023-05-24T09:01:09;6.43;;;3.43;;
61344;SDS011;47216;42.656;23.232;2023-05-24T09:03:37;8.18;;;3.42;;
61344;SDS011;47216;42.656;23.232;2023-05-24T09:06:06;12.60;;;3.28;;
61344;SDS011;47216;42.656;23.232;2023-05-24T09:08:36;9.07;;;3.30;;
61344;SDS011;47216;42.656;23.232;2023-05-24T09:11:06;6.80;;;3.30;;
61344;SDS011;47216;42.656;23.232;2023-05-24T09:13:33;9.95;;;3.63;;
61344;SDS011;47216;42.656;23.232;2023-05-24T09:16:01;6.75;;;3.80;;
61344;SDS011;47216;42.656;23.232;2023-05-24T09:18:29;4.55;;;3.35;;
61344;SDS011;47216;42.656;23.232;2023-05-24T09:20:55;5.25;;;3.28;;
61344;SDS011;47216;42.656;23.232;2023-05-24T09:23:23;6.97;;;3.17;;
61344;SDS011;47216;42.656;23.232;2023-05-24T09:25:52;4.80;;;3.03;;
61344;SDS011;47216;42.656;23.232;2023-05-24T09:28:20;8.45;;;3.15;;
61344;SDS011;47216;42.656;23.232;2023-05-24T09:30:56;5.93;;;2.90;;
61344;SDS011;47216;42.656;23.232;2023-05-24T09:33:27;3.72;;;2.60;;
61344;SDS011;47216;42.656;23.232;2023-05-24T09:35:55;9.32;;;3.58;;
61344;SDS011;47216;42.656;23.232;2023-05-24T09:38:23;11.48;;;4.20;;
61344;SDS011;47216;42.656;23.232;2023-05-24T09:41:00;8.10;;;2.95;;
61344;SDS011;47216;42.656;23.232;2023-05-24T09:43:30;15.57;;;4.20;;
61344;SDS011;47216;42.656;23.232;2023-05-24T09:45:59;5.95;;;2.80;;
61344;SDS011;47216;42.656;23.232;2023-05-24T09:48:28;27.63;;;7.50;;
61344;SDS011;47216;42.656;23.232;2023-05-24T09:50:59;10.52;;;4.55;;
61344;SDS011;47216;42.656;23.232;2023-05-24T09:53:30;4.32;;;2.88;;
61344;SDS011;47216;42.656;23.232;2023-05-24T09:55:58;8.40;;;2.78;;
61344;SDS011;47216;42.656;23.232;2023-05-24T09:58:28;7.85;;;3.00;;
61344;SDS011;47216;42.656;23.232;2023-05-24T10:01:03;8.35;;;3.20;;
61344;SDS011;47216;42.656;23.232;2023-05-24T10:03:31;4.55;;;2.70;;
61344;SDS011;47216;42.656;23.232;2023-05-24T10:05:58;7.93;;;3.15;;
61344;SDS011;47216;42.656;23.232;2023-05-24T10:08:26;7.85;;;4.15;;
61344;SDS011;47216;42.656;23.232;2023-05-24T10:10:54;19.30;;;5.22;;
61344;SDS011;47216;42.656;23.232;2023-05-24T10:13:21;7.88;;;2.90;;
61344;SDS011;47216;42.656;23.232;2023-05-24T10:15:48;4.45;;;3.00;;
61344;SDS011;47216;42.656;23.232;2023-05-24T10:18:17;14.15;;;3.25;;
61344;SDS011;47216;42.656;23.232;2023-05-24T10:20:44;14.13;;;5.13;;
61344;SDS011;47216;42.656;23.232;2023-05-24T10:23:12;3.78;;;2.30;;
61344;SDS011;47216;42.656;23.232;2023-05-24T10:25:44;15.20;;;3.35;;
61344;SDS011;47216;42.656;23.232;2023-05-24T10:28:15;6.22;;;3.00;;
61344;SDS011;47216;42.656;23.232;2023-05-24T10:30:46;4.40;;;2.60;;
61344;SDS011;47216;42.656;23.232;2023-05-24T10:33:24;9.13;;;3.30;;
61344;SDS011;47216;42.656;23.232;2023-05-24T10:35:51;10.35;;;2.65;;
61344;SDS011;47216;42.656;23.232;2023-05-24T10:38:19;7.85;;;2.70;;
61344;SDS011;47216;42.656;23.232;2023-05-24T10:40:47;6.57;;;2.53;;
61344;SDS011;47216;42.656;23.232;2023-05-24T10:43:15;13.03;;;3.63;;
61344;SDS011;47216;42.656;23.232;2023-05-24T10:45:46;8.25;;;2.60;;
61344;SDS011;47216;42.656;23.232;2023-05-24T10:53:56;5.47;;;2.73;;
61344;SDS011;47216;42.656;23.232;2023-05-24T10:56:23;4.63;;;2.80;;
61344;SDS011;47216;42.656;23.232;2023-05-24T10:58:58;6.55;;;3.00;;
61344;SDS011;47216;42.656;23.232;2023-05-24T11:01:27;6.05;;;2.60;;
61344;SDS011;47216;42.656;23.232;2023-05-24T11:04:06;3.97;;;2.80;;
61344;SDS011;47216;42.656;23.232;2023-05-24T11:06:46;5.15;;;2.90;;
61344;SDS011;47216;42.656;23.232;2023-05-24T11:09:14;8.27;;;3.23;;
61344;SDS011;47216;42.656;23.232;2023-05-24T11:11:44;4.70;;;2.55;;
61344;SDS011;47216;42.656;23.232;2023-05-24T11:14:13;6.28;;;2.58;;
61344;SDS011;47216;42.656;23.232;2023-05-24T11:16:45;11.07;;;2.90;;
61344;SDS011;47216;42.656;23.232;2023-05-24T11:19:17;4.53;;;2.50;;
61344;SDS011;47216;42.656;23.232;2023-05-24T11:21:45;4.80;;;2.70;;
61344;SDS011;47216;42.656;23.232;2023-05-24T11:24:14;7.63;;;2.60;;
61344;SDS011;47216;42.656;23.232;2023-05-24T11:26:42;4.45;;;2.83;;
61344;SDS011;47216;42.656;23.232;2023-05-24T11:29:12;6.35;;;3.10;;
61344;SDS011;47216;42.656;23.232;2023-05-24T11:31:45;5.13;;;2.75;;
61344;SDS011;47216;42.656;23.232;2023-05-24T11:34:13;6.10;;;2.88;;
61344;SDS011;47216;42.656;23.232;2023-05-24T11:36:43;6.20;;;3.00;;
61344;SDS011;47216;42.656;23.232;2023-05-24T11:39:10;5.53;;;2.92;;
61344;SDS011;47216;42.656;23.232;2023-05-24T11:41:38;9.52;;;3.17;;
61344;SDS011;47216;42.656;23.232;2023-05-24T11:44:06;4.95;;;2.85;;
61344;SDS011;47216;42.656;23.232;2023-05-24T11:46:33;7.07;;;2.80;;
61344;SDS011;47216;42.656;23.232;2023-05-24T11:49:00;6.13;;;3.03;;
61344;SDS011;47216;42.656;23.232;2023-05-24T11:51:28;18.58;;;3.35;;
61344;SDS011;47216;42.656;23.232;2023-05-24T11:53:57;7.35;;;2.70;;
61344;SDS011;47216;42.656;23.232;2023-05-24T11:56:25;5.80;;;2.95;;
61344;SDS011;47216;42.656;23.232;2023-05-24T11:58:55;5.55;;;2.65;;
61344;SDS011;47216;42.656;23.232;2023-05-24T12:01:30;5.90;;;2.90;;
61344;SDS011;47216;42.656;23.232;2023-05-24T12:03:57;6.05;;;2.88;;
61344;SDS011;47216;42.656;23.232;2023-05-24T12:06:23;4.18;;;2.85;;
61344;SDS011;47216;42.656;23.232;2023-05-24T12:09:01;3.80;;;2.70;;
61344;SDS011;47216;42.656;23.232;2023-05-24T12:11:30;3.92;;;2.67;;
61344;SDS011;47216;42.656;23.232;2023-05-24T12:13:57;14.03;;;3.17;;
61344;SDS011;47216;42.656;23.232;2023-05-24T12:16:25;3.80;;;2.55;;
61344;SDS011;47216;42.656;23.232;2023-05-24T12:18:56;6.22;;;2.58;;
61344;SDS011;47216;42.656;23.232;2023-05-24T12:21:23;4.68;;;2.80;;
61344;SDS011;47216;42.656;23.232;2023-05-24T12:23:50;5.70;;;2.92;;
61344;SDS011;47216;42.656;23.232;2023-05-24T12:26:18;5.68;;;2.63;;
61344;SDS011;47216;42.656;23.232;2023-05-24T12:28:47;5.93;;;2.80;;
61344;SDS011;47216;42.656;23.232;2023-05-24T12:31:19;6.23;;;2.80;;
61344;SDS011;47216;42.656;23.232;2023-05-24T12:33:46;4.75;;;2.78;;
61344;SDS011;47216;42.656;23.232;2023-05-24T12:36:14;18.25;;;3.22;;
61344;SDS011;47216;42.656;23.232;2023-05-24T12:38:41;5.10;;;2.80;;
61344;SDS011;47216;42.656;23.232;2023-05-24T12:41:07;4.10;;;2.50;;
61344;SDS011;47216;42.656;23.232;2023-05-24T12:43:38;3.97;;;2.25;;
61344;SDS011;47216;42.656;23.232;2023-05-24T12:46:08;6.88;;;2.50;;
61344;SDS011;47216;42.656;23.232;2023-05-24T12:48:35;4.20;;;2.92;;
61344;SDS011;47216;42.656;23.232;2023-05-24T12:51:02;11.27;;;2.90;;
61344;SDS011;47216;42.656;23.232;2023-05-24T12:53:29;40.60;;;6.80;;
61344;SDS011;47216;42.656;23.232;2023-05-24T12:55:55;33.73;;;6.00;;
61344;SDS011;47216;42.656;23.232;2023-05-24T12:58:24;14.23;;;3.60;;
61344;SDS011;47216;42.656;23.232;2023-05-24T13:00:52;5.07;;;2.60;;
61344;SDS011;47216;42.656;23.232;2023-05-24T13:03:19;14.77;;;3.80;;
61344;SDS011;47216;42.656;23.232;2023-05-24T13:05:46;4.20;;;2.97;;
61344;SDS011;47216;42.656;23.232;2023-05-24T13:08:13;3.97;;;2.70;;
61344;SDS011;47216;42.656;23.232;2023-05-24T13:10:40;3.15;;;2.50;;
61344;SDS011;47216;42.656;23.232;2023-05-24T13:13:07;5.03;;;2.60;;
61344;SDS011;47216;42.656;23.232;2023-05-24T13:15:34;7.03;;;2.80;;
61344;SDS011;47216;42.656;23.232;2023-05-24T13:18:03;6.40;;;2.78;;
61344;SDS011;47216;42.656;23.232;2023-05-24T13:20:31;10.98;;;3.10;;
61344;SDS011;47216;42.656;23.232;2023-05-24T13:22:58;4.20;;;2.70;;
61344;SDS011;47216;42.656;23.232;2023-05-24T13:25:24;5.80;;;3.80;;
61344;SDS011;47216;42.656;23.232;2023-05-24T13:27:51;7.80;;;3.30;;
61344;SDS011;47216;42.656;23.232;2023-05-24T13:30:18;7.32;;;3.05;;
61344;SDS011;47216;42.656;23.232;2023-05-24T13:32:51;5.13;;;2.65;;
61344;SDS011;47216;42.656;23.232;2023-05-24T13:35:20;8.32;;;2.90;;
61344;SDS011;47216;42.656;23.232;2023-05-24T13:37:47;10.63;;;2.80;;
61344;SDS011;47216;42.656;23.232;2023-05-24T13:40:15;13.85;;;3.72;;
61344;SDS011;47216;42.656;23.232;2023-05-24T13:42:42;10.73;;;3.27;;
61344;SDS011;47216;42.656;23.232;2023-05-24T13:45:10;19.97;;;5.37;;
61344;SDS011;47216;42.656;23.232;2023-05-24T13:47:37;25.90;;;4.50;;
61344;SDS011;47216;42.656;23.232;2023-05-24T13:50:04;12.52;;;3.88;;
61344;SDS011;47216;42.656;23.232;2023-05-24T13:52:33;9.80;;;3.20;;
61344;SDS011;47216;42.656;23.232;2023-05-24T13:55:01;7.05;;;3.10;;
61344;SDS011;47216;42.656;23.232;2023-05-24T13:57:29;7.82;;;3.10;;
61344;SDS011;47216;42.656;23.232;2023-05-24T13:59:57;7.18;;;2.85;;
61344;SDS011;47216;42.656;23.232;2023-05-24T14:02:24;9.27;;;3.30;;
61344;SDS011;47216;42.656;23.232;2023-05-24T14:04:51;15.15;;;4.13;;
61344;SDS011;47216;42.656;23.232;2023-05-24T14:07:18;5.53;;;3.40;;
61344;SDS011;47216;42.656;23.232;2023-05-24T14:09:46;5.82;;;3.53;;
61344;SDS011;47216;42.656;23.232;2023-05-24T14:12:13;7.15;;;3.63;;
61344;SDS011;47216;42.656;23.232;2023-05-24T14:14:40;6.75;;;3.85;;
61344;SDS011;47216;42.656;23.232;2023-05-24T14:17:07;6.55;;;3.80;;
61344;SDS011;47216;42.656;23.232;2023-05-24T14:19:34;7.28;;;4.57;;
61344;SDS011;47216;42.656;23.232;2023-05-24T14:22:00;7.20;;;3.80;;
61344;SDS011;47216;42.656;23.232;2023-05-24T14:24:27;8.73;;;3.63;;
61344;SDS011;47216;42.656;23.232;2023-05-24T14:26:56;5.68;;;3.42;;
61344;SDS011;47216;42.656;23.232;2023-05-24T14:29:23;7.93;;;3.67;;
61344;SDS011;47216;42.656;23.232;2023-05-24T14:31:49;7.97;;;3.87;;
61344;SDS011;47216;42.656;23.232;2023-05-24T14:34:16;7.10;;;4.20;;
61344;SDS011;47216;42.656;23.232;2023-05-24T14:36:43;8.32;;;3.75;;
61344;SDS011;47216;42.656;23.232;2023-05-24T14:39:12;5.28;;;3.60;;
61344;SDS011;47216;42.656;23.232;2023-05-24T14:41:38;4.70;;;2.63;;
61344;SDS011;47216;42.656;23.232;2023-05-24T14:44:07;3.50;;;3.13;;